UKOH/KHE METAR and TAF weather

Enter ICAO airport designator
Station Type Date Time Source
UKOH METAR 2018/12/15 20:00 UTC NOAA

UKOH 152000Z 06006MPS 030V100 7000 OVC007 M02/M03 Q1028 R03/CLRD65 NOSIG


Station Type Date Time Source
UKOH Decoded METAR 2018/12/15 20:00 UTC NOAA

Station name not available
Dec 15, 2018 - 03:00 PM EST / 2018.12.15 2000 UTC
Wind: from the ENE (060 degrees) at 13 MPH (12 KT) (direction variable):0
Visibility: 4 mile(s):0
Sky conditions: overcast
Temperature: 28 F (-2 C)
Windchill: 17 F (-8 C):1
Dew Point: 26 F (-3 C)
Relative Humidity: 92%
Pressure (altimeter): 30.36 in. Hg (1028 hPa)
ob: UKOH 152000Z 06006MPS 030V100 7000 OVC007 M02/M03 Q1028 R03/CLRD65 NOSIG
cycle: 20

Station Type Date Time Source
UKOH TAF UTC NOAA

Error!


Example: see airport list